sensor_id;sensor_type;location;lat;lon;timestamp;pressure;altitude;pressure_sealevel;temperature;humidity
61742;BME280;47650;49.848;9.620;2023-08-07T00:00:41;99078.53;;;12.67;100.00
61742;BME280;47650;49.848;9.620;2023-08-07T00:03:12;99092.03;;;12.57;100.00
61742;BME280;47650;49.848;9.620;2023-08-07T00:05:45;99061.97;;;12.48;100.00
61742;BME280;47650;49.848;9.620;2023-08-07T00:08:11;99099.19;;;12.56;100.00
61742;BME280;47650;49.848;9.620;2023-08-07T00:10:37;99090.13;;;12.74;100.00
61742;BME280;47650;49.848;9.620;2023-08-07T00:13:02;99102.09;;;12.70;100.00
61742;BME280;47650;49.848;9.620;2023-08-07T00:15:29;99064.78;;;12.47;100.00
61742;BME280;47650;49.848;9.620;2023-08-07T00:17:54;99107.16;;;12.56;100.00
61742;BME280;47650;49.848;9.620;2023-08-07T00:20:20;99071.63;;;12.49;100.00
61742;BME280;47650;49.848;9.620;2023-08-07T00:22:45;99088.00;;;12.61;100.00
61742;BME280;47650;49.848;9.620;2023-08-07T00:25:10;99109.44;;;12.59;100.00
61742;BME280;47650;49.848;9.620;2023-08-07T00:27:36;99111.44;;;12.57;100.00
61742;BME280;47650;49.848;9.620;2023-08-07T00:30:01;99051.38;;;12.32;100.00
61742;BME280;47650;49.848;9.620;2023-08-07T00:32:26;99103.63;;;12.64;100.00
61742;BME280;47650;49.848;9.620;2023-08-07T00:34:53;99111.28;;;12.59;100.00
61742;BME280;47650;49.848;9.620;2023-08-07T00:37:18;99111.78;;;12.63;100.00
61742;BME280;47650;49.848;9.620;2023-08-07T00:39:45;99099.19;;;12.56;100.00
61742;BME280;47650;49.848;9.620;2023-08-07T00:42:10;99085.50;;;12.59;100.00
61742;BME280;47650;49.848;9.620;2023-08-07T00:44:36;99110.06;;;12.78;100.00
61742;BME280;47650;49.848;9.620;2023-08-07T00:47:01;99101.44;;;12.76;100.00
61742;BME280;47650;49.848;9.620;2023-08-07T00:49:27;99110.69;;;12.88;100.00
61742;BME280;47650;49.848;9.620;2023-08-07T00:51:54;99109.94;;;13.03;100.00
61742;BME280;47650;49.848;9.620;2023-08-07T00:54:21;99124.25;;;12.62;100.00
61742;BME280;47650;49.848;9.620;2023-08-07T00:56:48;99124.75;;;12.57;100.00
61742;BME280;47650;49.848;9.620;2023-08-07T00:59:16;99124.09;;;12.64;100.00
61742;BME280;47650;49.848;9.620;2023-08-07T01:01:42;99131.59;;;12.52;100.00
61742;BME280;47650;49.848;9.620;2023-08-07T01:04:07;99107.81;;;12.42;100.00
61742;BME280;47650;49.848;9.620;2023-08-07T01:06:33;99125.59;;;12.58;100.00
61742;BME280;47650;49.848;9.620;2023-08-07T01:08:58;99094.19;;;12.53;100.00
61742;BME280;47650;49.848;9.620;2023-08-07T01:11:49;99131.72;;;12.67;100.00
61742;BME280;47650;49.848;9.620;2023-08-07T01:14:37;99123.44;;;12.62;100.00
61742;BME280;47650;49.848;9.620;2023-08-07T01:17:11;99066.38;;;12.08;100.00
61742;BME280;47650;49.848;9.620;2023-08-07T01:19:38;99106.34;;;12.39;100.00
61742;BME280;47650;49.848;9.620;2023-08-07T01:22:10;99118.81;;;12.39;100.00
61742;BME280;47650;49.848;9.620;2023-08-07T01:24:41;99125.41;;;12.59;100.00
61742;BME280;47650;49.848;9.620;2023-08-07T01:35:50;99138.22;;;12.56;100.00
61742;BME280;47650;49.848;9.620;2023-08-07T01:38:17;99134.22;;;12.60;100.00
61742;BME280;47650;49.848;9.620;2023-08-07T01:40:43;99139.91;;;12.49;100.00
61742;BME280;47650;49.848;9.620;2023-08-07T01:43:09;99133.59;;;12.50;100.00
61742;BME280;47650;49.848;9.620;2023-08-07T01:45:35;99099.56;;;12.12;100.00
61742;BME280;47650;49.848;9.620;2023-08-07T01:48:01;99142.38;;;12.42;100.00
61742;BME280;47650;49.848;9.620;2023-08-07T01:50:26;99135.94;;;12.28;100.00
61742;BME280;47650;49.848;9.620;2023-08-07T01:52:53;99136.75;;;12.45;100.00
61742;BME280;47650;49.848;9.620;2023-08-07T01:55:20;99155.88;;;12.32;100.00
61742;BME280;47650;49.848;9.620;2023-08-07T01:57:47;99121.81;;;12.19;100.00
61742;BME280;47650;49.848;9.620;2023-08-07T02:00:12;99157.34;;;12.51;100.00
61742;BME280;47650;49.848;9.620;2023-08-07T02:02:38;99166.31;;;12.42;100.00
61742;BME280;47650;49.848;9.620;2023-08-07T02:05:04;99113.03;;;12.02;100.00
61742;BME280;47650;49.848;9.620;2023-08-07T02:07:30;99161.69;;;12.28;100.00
61742;BME280;47650;49.848;9.620;2023-08-07T02:09:57;99158.69;;;12.39;100.00
61742;BME280;47650;49.848;9.620;2023-08-07T02:12:22;99157.56;;;12.25;100.00
61742;BME280;47650;49.848;9.620;2023-08-07T02:14:47;99158.00;;;12.37;100.00
61742;BME280;47650;49.848;9.620;2023-08-07T02:17:14;99178.28;;;12.21;100.00
61742;BME280;47650;49.848;9.620;2023-08-07T02:19:40;99172.00;;;12.22;100.00
61742;BME280;47650;49.848;9.620;2023-08-07T02:22:05;99174.81;;;12.29;100.00
61742;BME280;47650;49.848;9.620;2023-08-07T02:24:35;99166.34;;;12.17;100.00
61742;BME280;47650;49.848;9.620;2023-08-07T02:27:01;99175.97;;;12.27;100.00
61742;BME280;47650;49.848;9.620;2023-08-07T02:29:27;99169.34;;;12.22;100.00
61742;BME280;47650;49.848;9.620;2023-08-07T02:31:52;99157.22;;;12.20;100.00
61742;BME280;47650;49.848;9.620;2023-08-07T02:34:18;99159.88;;;12.20;100.00
61742;BME280;47650;49.848;9.620;2023-08-07T02:36:43;99145.09;;;11.93;100.00
61742;BME280;47650;49.848;9.620;2023-08-07T02:39:09;99170.00;;;12.16;100.00
61742;BME280;47650;49.848;9.620;2023-08-07T02:41:36;99188.44;;;12.18;100.00
61742;BME280;47650;49.848;9.620;2023-08-07T02:44:03;99174.16;;;12.19;100.00
61742;BME280;47650;49.848;9.620;2023-08-07T02:46:28;99182.28;;;12.26;100.00
61742;BME280;47650;49.848;9.620;2023-08-07T02:48:55;99186.09;;;12.39;100.00
61742;BME280;47650;49.848;9.620;2023-08-07T02:51:20;99180.66;;;12.16;100.00
61742;BME280;47650;49.848;9.620;2023-08-07T02:53:45;99186.09;;;12.31;100.00
61742;BME280;47650;49.848;9.620;2023-08-07T02:56:11;99182.63;;;12.22;100.00
61742;BME280;47650;49.848;9.620;2023-08-07T02:58:36;99170.19;;;12.15;100.00
61742;BME280;47650;49.848;9.620;2023-08-07T03:01:05;99187.59;;;12.17;100.00
61742;BME280;47650;49.848;9.620;2023-08-07T03:03:31;99172.66;;;12.08;100.00
61742;BME280;47650;49.848;9.620;2023-08-07T03:05:58;99178.31;;;12.05;100.00
61742;BME280;47650;49.848;9.620;2023-08-07T03:08:24;99180.97;;;12.05;100.00
61742;BME280;47650;49.848;9.620;2023-08-07T03:10:54;99172.16;;;11.96;100.00
61742;BME280;47650;49.848;9.620;2023-08-07T03:13:24;99168.66;;;12.12;100.00
61742;BME280;47650;49.848;9.620;2023-08-07T03:15:50;99164.03;;;12.22;100.00
61742;BME280;47650;49.848;9.620;2023-08-07T03:18:23;99179.63;;;12.26;100.00
61742;BME280;47650;49.848;9.620;2023-08-07T03:20:49;99188.44;;;12.18;100.00
61742;BME280;47650;49.848;9.620;2023-08-07T03:23:15;99197.91;;;12.29;100.00
61742;BME280;47650;49.848;9.620;2023-08-07T03:25:41;99191.41;;;12.23;100.00
61742;BME280;47650;49.848;9.620;2023-08-07T03:28:06;99199.56;;;12.30;100.00
61742;BME280;47650;49.848;9.620;2023-08-07T03:30:32;99196.59;;;12.16;100.00
61742;BME280;47650;49.848;9.620;2023-08-07T03:32:58;99192.59;;;12.20;100.00
61742;BME280;47650;49.848;9.620;2023-08-07T03:35:24;99202.19;;;11.97;100.00
61742;BME280;47650;49.848;9.620;2023-08-07T03:37:49;99201.88;;;11.92;100.00
61742;BME280;47650;49.848;9.620;2023-08-07T03:40:16;99189.56;;;11.99;100.00
61742;BME280;47650;49.848;9.620;2023-08-07T03:42:41;99209.19;;;11.98;100.00
61742;BME280;47650;49.848;9.620;2023-08-07T03:45:07;99204.06;;;12.04;100.00
61742;BME280;47650;49.848;9.620;2023-08-07T03:47:32;99205.31;;;11.84;100.00
61742;BME280;47650;49.848;9.620;2023-08-07T03:49:59;99209.50;;;11.95;100.00
61742;BME280;47650;49.848;9.620;2023-08-07T03:52:25;99208.69;;;11.94;100.00
61742;BME280;47650;49.848;9.620;2023-08-07T03:54:50;99185.94;;;12.00;100.00
61742;BME280;47650;49.848;9.620;2023-08-07T03:57:15;99218.31;;;11.95;100.00
61742;BME280;47650;49.848;9.620;2023-08-07T03:59:41;99216.97;;;11.91;100.00
61742;BME280;47650;49.848;9.620;2023-08-07T04:02:06;99212.13;;;11.86;100.00
61742;BME280;47650;49.848;9.620;2023-08-07T04:04:31;99216.75;;;11.84;100.00
61742;BME280;47650;49.848;9.620;2023-08-07T04:06:58;99228.59;;;11.98;100.00
61742;BME280;47650;49.848;9.620;2023-08-07T04:09:23;99222.63;;;11.96;100.00
61742;BME280;47650;49.848;9.620;2023-08-07T04:11:48;99216.81;;;11.93;100.00
61742;BME280;47650;49.848;9.620;2023-08-07T04:14:13;99224.22;;;11.81;100.00
61742;BME280;47650;49.848;9.620;2023-08-07T04:16:40;99208.78;;;11.84;100.00
61742;BME280;47650;49.848;9.620;2023-08-07T04:19:06;99182.84;;;11.62;100.00
61742;BME280;47650;49.848;9.620;2023-08-07T04:21:35;99190.19;;;11.84;100.00
61742;BME280;47650;49.848;9.620;2023-08-07T04:24:02;99203.13;;;11.79;100.00
61742;BME280;47650;49.848;9.620;2023-08-07T04:26:33;99222.25;;;11.83;100.00
61742;BME280;47650;49.848;9.620;2023-08-07T04:28:59;99233.72;;;11.83;100.00
61742;BME280;47650;49.848;9.620;2023-08-07T04:31:24;99222.78;;;11.95;100.00
61742;BME280;47650;49.848;9.620;2023-08-07T04:33:50;99229.09;;;11.94;100.00
61742;BME280;47650;49.848;9.620;2023-08-07T04:36:17;99236.41;;;12.00;100.00
61742;BME280;47650;49.848;9.620;2023-08-07T04:38:43;99227.72;;;11.90;100.00
61742;BME280;47650;49.848;9.620;2023-08-07T04:41:08;99237.59;;;12.06;100.00
61742;BME280;47650;49.848;9.620;2023-08-07T04:43:33;99236.38;;;11.83;100.00
61742;BME280;47650;49.848;9.620;2023-08-07T04:46:01;99219.50;;;12.01;100.00
61742;BME280;47650;49.848;9.620;2023-08-07T04:48:26;99230.25;;;11.91;100.00
61742;BME280;47650;49.848;9.620;2023-08-07T04:50:51;99226.41;;;11.85;100.00
61742;BME280;47650;49.848;9.620;2023-08-07T04:53:18;99219.41;;;11.84;100.00
61742;BME280;47650;49.848;9.620;2023-08-07T04:55:45;99224.72;;;11.76;100.00
61742;BME280;47650;49.848;9.620;2023-08-07T04:58:11;99239.06;;;12.00;100.00
61742;BME280;47650;49.848;9.620;2023-08-07T05:00:37;99249.38;;;12.03;100.00
61742;BME280;47650;49.848;9.620;2023-08-07T05:03:03;99251.03;;;12.04;100.00
61742;BME280;47650;49.848;9.620;2023-08-07T05:05:29;99218.59;;;11.84;100.00
61742;BME280;47650;49.848;9.620;2023-08-07T05:07:55;99254.38;;;12.06;100.00
61742;BME280;47650;49.848;9.620;2023-08-07T05:10:20;99245.66;;;11.88;100.00
61742;BME280;47650;49.848;9.620;2023-08-07T05:12:45;99207.59;;;11.71;100.00
61742;BME280;47650;49.848;9.620;2023-08-07T05:15:11;99252.38;;;12.25;100.00
61742;BME280;47650;49.848;9.620;2023-08-07T05:17:36;99254.06;;;12.26;100.00
61742;BME280;47650;49.848;9.620;2023-08-07T05:20:02;99253.69;;;12.04;100.00
61742;BME280;47650;49.848;9.620;2023-08-07T05:22:27;99246.38;;;11.98;100.00
61742;BME280;47650;49.848;9.620;2023-08-07T05:24:53;99259.06;;;12.29;100.00
61742;BME280;47650;49.848;9.620;2023-08-07T05:27:18;99257.19;;;12.13;100.00
61742;BME280;47650;49.848;9.620;2023-08-07T05:29:46;99233.94;;;12.23;100.00
61742;BME280;47650;49.848;9.620;2023-08-07T05:32:14;99270.66;;;12.28;100.00
61742;BME280;47650;49.848;9.620;2023-08-07T05:34:41;99258.56;;;12.58;100.00
61742;BME280;47650;49.848;9.620;2023-08-07T05:37:07;99260.34;;;12.90;100.00
61742;BME280;47650;49.848;9.620;2023-08-07T05:39:34;99280.31;;;12.29;100.00
61742;BME280;47650;49.848;9.620;2023-08-07T05:41:59;99280.84;;;12.65;100.00
61742;BME280;47650;49.848;9.620;2023-08-07T05:44:25;99277.34;;;12.48;100.00
61742;BME280;47650;49.848;9.620;2023-08-07T05:46:50;99273.69;;;12.49;100.00
61742;BME280;47650;49.848;9.620;2023-08-07T05:49:16;99231.13;;;12.25;100.00
61742;BME280;47650;49.848;9.620;2023-08-07T05:51:42;99229.63;;;12.47;100.00
61742;BME280;47650;49.848;9.620;2023-08-07T05:54:08;99282.84;;;12.63;100.00
61742;BME280;47650;49.848;9.620;2023-08-07T05:56:33;99281.66;;;12.66;100.00
61742;BME280;47650;49.848;9.620;2023-08-07T05:58:58;99269.66;;;12.86;100.00
61742;BME280;47650;49.848;9.620;2023-08-07T06:01:24;99270.66;;;12.85;100.00
61742;BME280;47650;49.848;9.620;2023-08-07T06:03:55;99275.00;;;12.94;98.80
61742;BME280;47650;49.848;9.620;2023-08-07T06:06:21;99235.00;;;13.11;98.75
61742;BME280;47650;49.848;9.620;2023-08-07T06:08:46;99295.56;;;13.09;95.96
61742;BME280;47650;49.848;9.620;2023-08-07T06:11:11;99288.47;;;12.85;98.47
61742;BME280;47650;49.848;9.620;2023-08-07T06:13:37;99305.09;;;12.70;97.83
61742;BME280;47650;49.848;9.620;2023-08-07T06:16:02;99294.91;;;13.07;98.47
61742;BME280;47650;49.848;9.620;2023-08-07T06:18:27;99296.59;;;12.91;97.21
61742;BME280;47650;49.848;9.620;2023-08-07T06:20:53;99297.38;;;13.33;96.08
61742;BME280;47650;49.848;9.620;2023-08-07T06:23:18;99290.81;;;13.60;94.18
61742;BME280;47650;49.848;9.620;2023-08-07T06:25:43;99302.97;;;13.94;93.44
61742;BME280;47650;49.848;9.620;2023-08-07T06:28:08;99306.41;;;13.63;92.90
61742;BME280;47650;49.848;9.620;2023-08-07T06:30:34;99300.06;;;13.72;90.32
61742;BME280;47650;49.848;9.620;2023-08-07T06:32:59;99319.00;;;13.38;91.61
61742;BME280;47650;49.848;9.620;2023-08-07T06:35:24;99307.84;;;13.43;91.99
61742;BME280;47650;49.848;9.620;2023-08-07T06:37:52;99303.81;;;13.55;90.21
61742;BME280;47650;49.848;9.620;2023-08-07T06:40:17;99317.41;;;13.68;90.09
61742;BME280;47650;49.848;9.620;2023-08-07T06:42:42;99313.72;;;13.78;89.34
61742;BME280;47650;49.848;9.620;2023-08-07T06:45:08;99310.31;;;13.92;89.94
61742;BME280;47650;49.848;9.620;2023-08-07T06:47:33;99310.81;;;14.19;89.82
61742;BME280;47650;49.848;9.620;2023-08-07T06:49:59;99286.31;;;13.52;89.16
61742;BME280;47650;49.848;9.620;2023-08-07T06:52:24;99313.75;;;13.69;89.66
61742;BME280;47650;49.848;9.620;2023-08-07T06:54:49;99319.09;;;13.53;89.96
61742;BME280;47650;49.848;9.620;2023-08-07T06:57:15;99334.31;;;13.36;90.40
61742;BME280;47650;49.848;9.620;2023-08-07T06:59:40;99325.69;;;13.73;89.87
61742;BME280;47650;49.848;9.620;2023-08-07T07:02:05;99312.31;;;13.42;91.88
61742;BME280;47650;49.848;9.620;2023-08-07T07:04:31;99307.75;;;13.67;88.50
61742;BME280;47650;49.848;9.620;2023-08-07T07:06:58;99324.34;;;14.40;88.74
61742;BME280;47650;49.848;9.620;2023-08-07T07:09:23;99322.94;;;14.53;87.91
61742;BME280;47650;49.848;9.620;2023-08-07T07:11:49;99325.38;;;14.08;87.91
61742;BME280;47650;49.848;9.620;2023-08-07T07:14:14;99325.41;;;14.00;87.65
61742;BME280;47650;49.848;9.620;2023-08-07T07:16:39;99338.00;;;14.45;88.51
61742;BME280;47650;49.848;9.620;2023-08-07T07:19:07;99339.31;;;13.87;88.96
61742;BME280;47650;49.848;9.620;2023-08-07T07:21:33;99339.34;;;14.10;88.62
61742;BME280;47650;49.848;9.620;2023-08-07T07:24:00;99343.34;;;14.14;89.23
61742;BME280;47650;49.848;9.620;2023-08-07T07:26:26;99348.56;;;14.62;86.81
61742;BME280;47650;49.848;9.620;2023-08-07T07:28:51;99348.56;;;14.62;86.53
61742;BME280;47650;49.848;9.620;2023-08-07T07:31:17;99351.69;;;14.42;88.36
61742;BME280;47650;49.848;9.620;2023-08-07T07:33:42;99364.06;;;14.35;86.69
61742;BME280;47650;49.848;9.620;2023-08-07T07:36:14;99359.47;;;13.89;87.62
61742;BME280;47650;49.848;9.620;2023-08-07T07:38:40;99358.94;;;13.86;87.89
61742;BME280;47650;49.848;9.620;2023-08-07T07:41:05;99356.22;;;14.34;85.59
61742;BME280;47650;49.848;9.620;2023-08-07T07:43:35;99372.72;;;14.37;87.42
61742;BME280;47650;49.848;9.620;2023-08-07T07:46:00;99351.66;;;13.88;87.84
61742;BME280;47650;49.848;9.620;2023-08-07T07:48:28;99383.63;;;13.80;89.07
61742;BME280;47650;49.848;9.620;2023-08-07T07:51:03;99387.56;;;14.00;90.67
61742;BME280;47650;49.848;9.620;2023-08-07T07:53:29;99378.22;;;13.48;90.42
61742;BME280;47650;49.848;9.620;2023-08-07T07:55:55;99397.47;;;13.67;90.90
61742;BME280;47650;49.848;9.620;2023-08-07T07:58:20;99403.34;;;13.62;91.55
61742;BME280;47650;49.848;9.620;2023-08-07T08:00:46;99402.97;;;13.73;89.85
61742;BME280;47650;49.848;9.620;2023-08-07T08:03:13;99383.47;;;14.21;87.88
61742;BME280;47650;49.848;9.620;2023-08-07T08:05:40;99403.41;;;14.33;87.85
61742;BME280;47650;49.848;9.620;2023-08-07T08:08:06;99378.41;;;13.39;88.03
61742;BME280;47650;49.848;9.620;2023-08-07T08:10:35;99383.56;;;13.40;89.39
61742;BME280;47650;49.848;9.620;2023-08-07T08:13:01;99406.59;;;13.89;88.86
61742;BME280;47650;49.848;9.620;2023-08-07T08:15:30;99390.69;;;13.56;86.50
61742;BME280;47650;49.848;9.620;2023-08-07T08:17:55;99426.47;;;13.70;87.52
61742;BME280;47650;49.848;9.620;2023-08-07T08:20:21;99421.63;;;14.61;84.18
61742;BME280;47650;49.848;9.620;2023-08-07T08:22:46;99407.22;;;14.39;83.93
61742;BME280;47650;49.848;9.620;2023-08-07T08:25:13;99367.84;;;14.41;82.83
61742;BME280;47650;49.848;9.620;2023-08-07T08:27:39;99420.81;;;14.21;83.09
61742;BME280;47650;49.848;9.620;2023-08-07T08:30:05;99421.06;;;14.34;82.58
61742;BME280;47650;49.848;9.620;2023-08-07T08:32:34;99381.84;;;14.11;82.72
61742;BME280;47650;49.848;9.620;2023-08-07T08:34:59;99428.53;;;13.99;82.96
61742;BME280;47650;49.848;9.620;2023-08-07T08:37:25;99431.78;;;14.26;85.15
61742;BME280;47650;49.848;9.620;2023-08-07T08:39:50;99430.63;;;14.52;83.39
61742;BME280;47650;49.848;9.620;2023-08-07T08:42:16;99381.06;;;14.34;81.92
61742;BME280;47650;49.848;9.620;2023-08-07T08:44:49;99436.38;;;14.01;81.98
61742;BME280;47650;49.848;9.620;2023-08-07T08:47:17;99438.78;;;14.19;83.30
61742;BME280;47650;49.848;9.620;2023-08-07T08:49:46;99439.53;;;13.96;82.74
61742;BME280;47650;49.848;9.620;2023-08-07T08:52:16;99403.66;;;13.67;83.04
61742;BME280;47650;49.848;9.620;2023-08-07T08:54:43;99426.06;;;14.69;81.39
61742;BME280;47650;49.848;9.620;2023-08-07T08:57:11;99392.59;;;13.95;81.85
61742;BME280;47650;49.848;9.620;2023-08-07T08:59:36;99430.38;;;14.38;81.66
61742;BME280;47650;49.848;9.620;2023-08-07T09:02:03;99436.28;;;14.65;79.35
61742;BME280;47650;49.848;9.620;2023-08-07T09:04:30;99424.84;;;15.02;79.39
61742;BME280;47650;49.848;9.620;2023-08-07T09:06:55;99442.88;;;14.77;78.12
61742;BME280;47650;49.848;9.620;2023-08-07T09:09:22;99415.47;;;14.83;77.29
61742;BME280;47650;49.848;9.620;2023-08-07T09:11:48;99414.19;;;15.55;75.89
61742;BME280;47650;49.848;9.620;2023-08-07T09:14:17;99392.66;;;15.19;75.05
61742;BME280;47650;49.848;9.620;2023-08-07T09:16:49;99432.22;;;15.76;74.42
61742;BME280;47650;49.848;9.620;2023-08-07T09:19:15;99444.06;;;14.98;75.80
61742;BME280;47650;49.848;9.620;2023-08-07T09:21:41;99408.41;;;14.36;78.27
61742;BME280;47650;49.848;9.620;2023-08-07T09:24:08;99446.44;;;14.93;77.82
61742;BME280;47650;49.848;9.620;2023-08-07T09:26:33;99464.88;;;15.49;74.89
61742;BME280;47650;49.848;9.620;2023-08-07T09:28:59;99425.41;;;15.36;73.12
61742;BME280;47650;49.848;9.620;2023-08-07T09:31:27;99455.00;;;15.87;71.97
61742;BME280;47650;49.848;9.620;2023-08-07T09:33:52;99464.78;;;16.10;71.85
61742;BME280;47650;49.848;9.620;2023-08-07T09:36:18;99435.16;;;16.26;70.70
61742;BME280;47650;49.848;9.620;2023-08-07T09:38:44;99463.53;;;16.94;69.33
61742;BME280;47650;49.848;9.620;2023-08-07T09:41:17;99458.78;;;16.89;69.27
61742;BME280;47650;49.848;9.620;2023-08-07T09:43:44;99454.06;;;16.76;70.23
61742;BME280;47650;49.848;9.620;2023-08-07T09:46:11;99472.53;;;16.86;71.74
61742;BME280;47650;49.848;9.620;2023-08-07T09:48:42;99470.50;;;16.88;69.68
61742;BME280;47650;49.848;9.620;2023-08-07T09:51:07;99470.03;;;17.06;69.63
61742;BME280;47650;49.848;9.620;2023-08-07T09:53:33;99476.50;;;17.33;69.30
61742;BME280;47650;49.848;9.620;2023-08-07T09:56:02;99479.44;;;17.17;68.06
61742;BME280;47650;49.848;9.620;2023-08-07T09:58:29;99476.63;;;17.25;66.39
61742;BME280;47650;49.848;9.620;2023-08-07T10:00:54;99479.31;;;17.03;67.38
61742;BME280;47650;49.848;9.620;2023-08-07T10:03:24;99492.06;;;17.73;65.15
61742;BME280;47650;49.848;9.620;2023-08-07T10:05:50;99492.13;;;17.51;62.89
61742;BME280;47650;49.848;9.620;2023-08-07T10:08:16;99450.50;;;16.54;66.73
61742;BME280;47650;49.848;9.620;2023-08-07T10:10:42;99487.84;;;17.57;65.53
61742;BME280;47650;49.848;9.620;2023-08-07T10:13:08;99475.41;;;16.84;67.54
61742;BME280;47650;49.848;9.620;2023-08-07T10:15:35;99489.66;;;16.55;69.19
61742;BME280;47650;49.848;9.620;2023-08-07T10:18:01;99502.84;;;16.57;70.63
61742;BME280;47650;49.848;9.620;2023-08-07T10:20:28;99496.94;;;16.61;73.67
61742;BME280;47650;49.848;9.620;2023-08-07T10:23:00;99479.16;;;16.09;74.33
61742;BME280;47650;49.848;9.620;2023-08-07T10:25:29;99488.91;;;16.61;75.27
61742;BME280;47650;49.848;9.620;2023-08-07T10:27:57;99507.66;;;16.02;75.04
61742;BME280;47650;49.848;9.620;2023-08-07T10:30:26;99519.94;;;15.73;75.74
61742;BME280;47650;49.848;9.620;2023-08-07T10:32:53;99510.38;;;15.55;77.07
61742;BME280;47650;49.848;9.620;2023-08-07T10:35:29;99502.31;;;15.64;77.23
61742;BME280;47650;49.848;9.620;2023-08-07T10:38:08;99510.97;;;15.66;78.13
61742;BME280;47650;49.848;9.620;2023-08-07T10:40:34;99502.38;;;15.55;77.35
61742;BME280;47650;49.848;9.620;2023-08-07T10:43:13;99513.53;;;15.97;77.34
61742;BME280;47650;49.848;9.620;2023-08-07T10:45:39;99527.09;;;15.11;77.73
61742;BME280;47650;49.848;9.620;2023-08-07T10:50:33;99506.97;;;15.00;77.73
61742;BME280;47650;49.848;9.620;2023-08-07T10:53:03;99507.91;;;16.36;74.71
61742;BME280;47650;49.848;9.620;2023-08-07T10:55:44;99522.75;;;15.56;76.67
61742;BME280;47650;49.848;9.620;2023-08-07T10:58:29;99515.50;;;16.48;75.18
61742;BME280;47650;49.848;9.620;2023-08-07T11:03:53;99527.47;;;15.92;77.45
61742;BME280;47650;49.848;9.620;2023-08-07T11:06:25;99537.44;;;16.58;73.85
61742;BME280;47650;49.848;9.620;2023-08-07T11:08:53;99538.47;;;15.51;74.81
61742;BME280;47650;49.848;9.620;2023-08-07T11:11:19;99536.81;;;16.11;74.33
61742;BME280;47650;49.848;9.620;2023-08-07T11:13:46;99533.38;;;15.65;76.33
61742;BME280;47650;49.848;9.620;2023-08-07T11:16:11;99542.28;;;15.80;74.86
61742;BME280;47650;49.848;9.620;2023-08-07T11:18:37;99498.56;;;15.50;75.68
61742;BME280;47650;49.848;9.620;2023-08-07T11:21:07;99546.00;;;15.71;75.75
61742;BME280;47650;49.848;9.620;2023-08-07T11:23:39;99539.47;;;15.73;74.88
61742;BME280;47650;49.848;9.620;2023-08-07T11:26:05;99553.56;;;15.44;76.08
61742;BME280;47650;49.848;9.620;2023-08-07T11:28:31;99540.69;;;15.25;76.54
61742;BME280;47650;49.848;9.620;2023-08-07T11:30:57;99553.38;;;15.22;76.16
61742;BME280;47650;49.848;9.620;2023-08-07T11:33:26;99550.28;;;15.11;76.70
61742;BME280;47650;49.848;9.620;2023-08-07T11:35:52;99550.47;;;15.09;77.63
61742;BME280;47650;49.848;9.620;2023-08-07T11:38:38;99552.19;;;15.02;77.20
61742;BME280;47650;49.848;9.620;2023-08-07T11:41:08;99553.69;;;14.96;78.11
61742;BME280;47650;49.848;9.620;2023-08-07T11:43:34;99577.88;;;14.95;80.07
61742;BME280;47650;49.848;9.620;2023-08-07T11:46:07;99577.94;;;14.87;81.45
61742;BME280;47650;49.848;9.620;2023-08-07T11:48:37;99541.19;;;14.57;81.29
61742;BME280;47650;49.848;9.620;2023-08-07T11:51:04;99569.50;;;15.06;80.73
61742;BME280;47650;49.848;9.620;2023-08-07T11:53:31;99567.56;;;15.23;78.86
61742;BME280;47650;49.848;9.620;2023-08-07T11:55:58;99559.31;;;14.70;81.52
61742;BME280;47650;49.848;9.620;2023-08-07T11:58:26;99536.94;;;14.79;81.39
61742;BME280;47650;49.848;9.620;2023-08-07T12:00:53;99563.75;;;15.17;80.93
61742;BME280;47650;49.848;9.620;2023-08-07T12:03:30;99588.94;;;14.92;80.79
61742;BME280;47650;49.848;9.620;2023-08-07T12:05:57;99578.00;;;15.10;80.41
61742;BME280;47650;49.848;9.620;2023-08-07T12:08:24;99560.06;;;14.95;80.22
61742;BME280;47650;49.848;9.620;2023-08-07T12:10:55;99589.72;;;15.32;80.70
61742;BME280;47650;49.848;9.620;2023-08-07T12:13:24;99574.22;;;15.50;79.04
61742;BME280;47650;49.848;9.620;2023-08-07T12:15:51;99595.41;;;15.29;79.19
61742;BME280;47650;49.848;9.620;2023-08-07T12:18:22;99590.81;;;15.14;80.37
61742;BME280;47650;49.848;9.620;2023-08-07T12:20:50;99570.13;;;15.39;79.13
61742;BME280;47650;49.848;9.620;2023-08-07T12:23:17;99590.50;;;15.64;77.39
61742;BME280;47650;49.848;9.620;2023-08-07T12:25:45;99587.53;;;15.35;78.40
61742;BME280;47650;49.848;9.620;2023-08-07T12:28:11;99589.72;;;15.32;79.67
61742;BME280;47650;49.848;9.620;2023-08-07T12:30:37;99599.28;;;16.33;76.90
61742;BME280;47650;49.848;9.620;2023-08-07T12:33:03;99598.25;;;16.34;77.28
61742;BME280;47650;49.848;9.620;2023-08-07T12:35:30;99604.66;;;15.95;77.41
61742;BME280;47650;49.848;9.620;2023-08-07T12:37:55;99607.09;;;15.82;78.26
61742;BME280;47650;49.848;9.620;2023-08-07T12:40:22;99591.88;;;15.83;77.48
61742;BME280;47650;49.848;9.620;2023-08-07T12:42:48;99602.63;;;16.12;76.22
61742;BME280;47650;49.848;9.620;2023-08-07T12:45:15;99603.38;;;15.83;76.48
61742;BME280;47650;49.848;9.620;2023-08-07T12:47:42;99615.25;;;16.04;75.62
61742;BME280;47650;49.848;9.620;2023-08-07T12:50:10;99613.56;;;17.15;74.40
61742;BME280;47650;49.848;9.620;2023-08-07T12:52:36;99624.00;;;16.35;73.96
61742;BME280;47650;49.848;9.620;2023-08-07T12:55:01;99616.88;;;16.13;76.78
61742;BME280;47650;49.848;9.620;2023-08-07T12:57:27;99625.00;;;16.20;76.82
61742;BME280;47650;49.848;9.620;2023-08-07T12:59:52;99617.94;;;16.86;74.27
61742;BME280;47650;49.848;9.620;2023-08-07T13:02:17;99598.78;;;16.30;74.91
61742;BME280;47650;49.848;9.620;2023-08-07T13:04:44;99616.81;;;16.51;75.40
61742;BME280;47650;49.848;9.620;2023-08-07T13:07:09;99612.22;;;17.04;75.40